Time;durP1;ratioP1;P1;durP2;ratioP2;P2;SDS_P1;SDS_P2;PMS_P1;PMS_P2;Temp;Humidity;BMP_temperature;BMP_pressure;BME280_temperature;BME280_humidity;BME280_pressure;Samples;Min_cycle;Max_cycle;Signal;HPM_P1;HPM_P2
2021/04/03 00:00:44;;;;;;;23.17;15.80;;;4.20;99.90;;;;;;5070557;28;20249;-73
2021/04/03 00:03:12;;;;;;;19.83;14.53;;;4.20;99.90;;;;;;5070666;28;20238;-73
2021/04/03 00:05:39;;;;;;;23.93;15.17;;;4.20;99.90;;;;;;5070988;28;20293;-74
2021/04/03 00:08:07;;;;;;;24.50;15.53;;;4.20;99.90;;;;;;5070423;28;20469;-73
2021/04/03 00:10:38;;;;;;;24.57;15.70;;;4.30;99.90;;;;;;5070940;28;20238;-73
2021/04/03 00:13:05;;;;;;;23.73;15.57;;;4.30;99.90;;;;;;5070915;28;20317;-73
2021/04/03 00:15:32;;;;;;;24.53;15.57;;;4.20;99.90;;;;;;5070940;28;20746;-73
2021/04/03 00:17:59;;;;;;;24.03;16.13;;;4.30;99.90;;;;;;5070907;28;20290;-74
2021/04/03 00:20:28;;;;;;;25.43;16.17;;;4.20;99.90;;;;;;5070599;28;20660;-73
2021/04/03 00:22:54;;;;;;;24.93;16.90;;;4.20;99.90;;;;;;5070260;28;20233;-73
2021/04/03 00:25:21;;;;;;;25.17;16.73;;;4.10;99.90;;;;;;5070045;28;20203;-73
2021/04/03 00:27:48;;;;;;;25.30;17.63;;;4.10;99.90;;;;;;5070622;28;20290;-73
2021/04/03 00:30:17;;;;;;;25.87;16.23;;;4.10;99.90;;;;;;5070413;28;20655;-73
2021/04/03 00:32:47;;;;;;;27.50;18.03;;;4.10;99.90;;;;;;5071071;28;20225;-73
2021/04/03 00:35:17;;;;;;;25.30;17.30;;;4.00;99.90;;;;;;5070782;28;20241;-73
2021/04/03 00:37:44;;;;;;;25.07;17.33;;;4.00;99.90;;;;;;5070415;28;20735;-73
2021/04/03 00:40:14;;;;;;;26.40;16.97;;;4.00;99.90;;;;;;5072304;28;20262;-73
2021/04/03 00:42:42;;;;;;;23.83;17.20;;;4.00;99.90;;;;;;5053421;28;20286;-73
2021/04/03 00:45:09;;;;;;;26.07;17.00;;;4.10;99.90;;;;;;5068142;28;20195;-73
2021/04/03 00:47:36;;;;;;;27.43;17.57;;;4.00;99.90;;;;;;5074344;28;20285;-74
2021/04/03 00:50:04;;;;;;;27.07;16.67;;;3.90;99.90;;;;;;5073806;28;20282;-73
2021/04/03 00:52:31;;;;;;;27.27;16.23;;;3.90;99.90;;;;;;5073599;28;20640;-73
2021/04/03 00:54:57;;;;;;;25.60;16.03;;;3.90;99.90;;;;;;5074354;28;20316;-73
2021/04/03 00:57:24;;;;;;;24.70;15.77;;;4.00;99.90;;;;;;5073572;28;20260;-73
2021/04/03 00:59:51;;;;;;;23.83;15.47;;;4.00;99.90;;;;;;5073415;28;20207;-73
2021/04/03 01:02:17;;;;;;;25.57;15.73;;;3.90;99.90;;;;;;5073723;28;20289;-73
2021/04/03 01:04:44;;;;;;;26.13;16.33;;;3.90;99.90;;;;;;5073721;28;20331;-73
2021/04/03 01:07:11;;;;;;;24.23;16.03;;;3.90;99.90;;;;;;5073288;28;20207;-73
2021/04/03 01:09:39;;;;;;;26.97;15.77;;;3.80;99.90;;;;;;5073775;28;20290;-74
2021/04/03 01:12:20;;;;;;;26.33;15.00;;;3.80;99.90;;;;;;5073872;28;20607;-73
2021/04/03 01:14:57;;;;;;;25.77;15.53;;;3.70;99.90;;;;;;5073488;28;20206;-73
2021/04/03 01:17:30;;;;;;;24.67;15.63;;;3.80;99.90;;;;;;5073417;28;20297;-73
2021/04/03 01:20:32;;;;;;;25.30;15.63;;;3.80;99.90;;;;;;5073395;28;20234;-73
2021/04/03 01:23:20;;;;;;;24.63;16.13;;;3.80;99.90;;;;;;5072228;28;20236;-73
2021/04/03 01:26:01;;;;;;;25.80;15.43;;;3.70;99.90;;;;;;5073048;28;20208;-73
2021/04/03 01:28:53;;;;;;;23.73;14.97;;;3.80;99.90;;;;;;5073089;28;20233;-73
2021/04/03 01:31:21;;;;;;;24.97;15.43;;;3.90;99.90;;;;;;5073681;28;20303;-73
2021/04/03 01:33:50;;;;;;;24.43;15.03;;;3.90;99.90;;;;;;5072890;28;20638;-73
2021/04/03 01:36:20;;;;;;;28.87;15.67;;;3.80;99.90;;;;;;5053185;28;20293;-73
2021/04/03 01:38:54;;;;;;;21.90;15.60;;;3.80;99.90;;;;;;5053307;28;20321;-73
2021/04/03 01:41:23;;;;;;;24.07;14.83;;;3.80;99.90;;;;;;5053624;28;20326;-73
2021/04/03 01:43:53;;;;;;;23.13;14.77;;;3.90;99.90;;;;;;5053292;28;20251;-73
2021/04/03 01:46:23;;;;;;;26.63;14.83;;;3.90;99.90;;;;;;5053455;28;20297;-73
2021/04/03 01:48:51;;;;;;;22.93;15.50;;;3.90;99.90;;;;;;5053246;28;20232;-73
2021/04/03 01:51:18;;;;;;;22.07;14.80;;;3.90;99.90;;;;;;5056901;28;20206;-73
2021/04/03 01:53:46;;;;;;;21.83;14.57;;;3.90;99.90;;;;;;5071423;28;20361;-73
2021/04/03 01:56:13;;;;;;;19.23;14.07;;;3.80;99.90;;;;;;5073013;28;20206;-73
2021/04/03 01:58:41;;;;;;;20.53;14.60;;;3.70;99.90;;;;;;5072854;28;20294;-74
2021/04/03 02:01:10;;;;;;;21.17;14.07;;;3.80;99.90;;;;;;5072716;28;20311;-73
2021/04/03 02:03:38;;;;;;;20.43;13.00;;;3.80;99.90;;;;;;5073146;28;20301;-73
2021/04/03 02:06:06;;;;;;;19.33;13.00;;;3.80;99.90;;;;;;5071543;28;20316;-73
2021/04/03 02:08:34;;;;;;;20.67;13.07;;;3.70;99.90;;;;;;5071608;28;20238;-73
2021/04/03 02:11:04;;;;;;;20.90;13.37;;;3.70;99.90;;;;;;5072520;28;20657;-73
2021/04/03 02:13:32;;;;;;;23.50;13.43;;;3.60;99.90;;;;;;5070591;28;20220;-73
2021/04/03 02:16:00;;;;;;;20.40;12.97;;;3.60;99.90;;;;;;5072406;28;20783;-73
2021/04/03 02:18:29;;;;;;;18.70;12.47;;;3.60;99.90;;;;;;5072010;28;20300;-73
2021/04/03 02:20:58;;;;;;;24.13;13.30;;;3.60;99.90;;;;;;5087336;28;20315;-73
2021/04/03 02:23:27;;;;;;;21.87;13.17;;;3.60;99.90;;;;;;5072217;28;20267;-73
2021/04/03 02:25:55;;;;;;;20.23;12.27;;;3.70;99.90;;;;;;5072234;28;20671;-73
2021/04/03 02:28:22;;;;;;;20.93;12.40;;;3.70;99.90;;;;;;5072410;28;20599;-73
2021/04/03 02:30:48;;;;;;;19.07;12.63;;;3.70;99.90;;;;;;5072667;28;20232;-73
2021/04/03 02:33:14;;;;;;;21.03;12.93;;;3.70;99.90;;;;;;5071289;28;20292;-73
2021/04/03 02:35:41;;;;;;;19.67;12.80;;;3.60;99.90;;;;;;5071897;28;20216;-73
2021/04/03 02:38:09;;;;;;;18.23;12.40;;;3.60;99.90;;;;;;5071729;28;20279;-73
2021/04/03 02:40:35;;;;;;;21.37;13.07;;;3.60;99.90;;;;;;5072615;28;20331;-73
2021/04/03 02:43:06;;;;;;;19.30;12.87;;;3.70;99.90;;;;;;5072047;28;20292;-73
2021/04/03 02:45:37;;;;;;;19.63;12.80;;;3.70;99.90;;;;;;5072260;28;20298;-73
2021/04/03 02:48:09;;;;;;;22.43;12.47;;;3.70;99.90;;;;;;5070759;28;20293;-73
2021/04/03 02:50:40;;;;;;;19.47;12.23;;;3.60;99.90;;;;;;5072319;28;20619;-73
2021/04/03 02:53:11;;;;;;;21.80;12.93;;;3.50;99.90;;;;;;5071652;28;20629;-73
2021/04/03 02:55:44;;;;;;;21.53;12.50;;;3.50;99.90;;;;;;5071577;28;20687;-73
2021/04/03 02:58:12;;;;;;;18.33;13.30;;;3.50;99.90;;;;;;5071251;28;20287;-73
2021/04/03 03:00:40;;;;;;;18.40;12.37;;;3.60;99.90;;;;;;5071256;28;21237;-73
2021/04/03 03:03:09;;;;;;;19.23;12.93;;;3.50;99.90;;;;;;5070174;28;20249;-73
2021/04/03 03:05:38;;;;;;;20.53;13.33;;;3.50;99.90;;;;;;5063576;28;20260;-73
2021/04/03 03:08:05;;;;;;;20.00;13.33;;;3.60;99.90;;;;;;5051494;28;20298;-73
2021/04/03 03:10:33;;;;;;;18.43;13.07;;;3.50;99.90;;;;;;5069908;28;20287;-73
2021/04/03 03:13:00;;;;;;;21.73;13.20;;;3.50;99.90;;;;;;5069613;28;20749;-73
2021/04/03 03:15:31;;;;;;;18.10;12.87;;;3.60;99.90;;;;;;5069591;28;20303;-73
2021/04/03 03:17:58;;;;;;;21.00;13.33;;;3.60;99.90;;;;;;5071165;28;20325;-73
2021/04/03 03:20:25;;;;;;;21.47;12.87;;;3.70;99.90;;;;;;5061668;28;20312;-73
2021/04/03 03:22:51;;;;;;;17.93;11.93;;;3.70;99.90;;;;;;5070338;28;20323;-73
2021/04/03 03:25:18;;;;;;;21.53;12.33;;;3.80;99.90;;;;;;5070558;28;20284;-73
2021/04/03 03:27:47;;;;;;;22.37;13.43;;;3.80;99.90;;;;;;5072030;28;20295;-73
2021/04/03 03:30:17;;;;;;;18.63;11.77;;;3.70;99.90;;;;;;5071790;28;20327;-73
2021/04/03 03:32:44;;;;;;;18.83;12.40;;;3.80;99.90;;;;;;5071119;28;20201;-73
2021/04/03 03:35:11;;;;;;;18.20;11.50;;;3.90;99.90;;;;;;5071153;28;20575;-73
2021/04/03 03:37:38;;;;;;;19.03;12.37;;;3.80;99.90;;;;;;5070371;28;20770;-73
2021/04/03 03:40:06;;;;;;;19.33;13.00;;;3.80;99.90;;;;;;5071269;28;20255;-73
2021/04/03 03:42:35;;;;;;;18.23;12.27;;;3.80;99.90;;;;;;5070030;28;20280;-73
2021/04/03 03:45:04;;;;;;;18.67;12.90;;;3.80;99.90;;;;;;5071303;28;20203;-73
2021/04/03 03:47:31;;;;;;;21.13;13.13;;;3.80;99.90;;;;;;5070833;28;20254;-73
2021/04/03 03:49:58;;;;;;;20.23;12.10;;;3.80;99.90;;;;;;5071547;28;20257;-73
2021/04/03 03:52:24;;;;;;;19.70;13.07;;;3.70;99.90;;;;;;5070268;28;20296;-73
2021/04/03 03:54:51;;;;;;;19.40;12.93;;;3.80;99.90;;;;;;5071015;28;20589;-73
2021/04/03 03:57:17;;;;;;;15.13;11.67;;;3.70;99.90;;;;;;5071532;28;20250;-73
2021/04/03 03:59:44;;;;;;;20.40;12.67;;;3.60;99.90;;;;;;5071360;28;20311;-73
2021/04/03 04:02:11;;;;;;;18.50;12.43;;;3.70;99.90;;;;;;5071315;28;20334;-73
2021/04/03 04:04:37;;;;;;;21.20;12.73;;;3.60;99.90;;;;;;5070217;28;20228;-73
2021/04/03 04:07:05;;;;;;;19.73;11.97;;;3.60;99.90;;;;;;5071595;28;20609;-73
2021/04/03 04:09:31;;;;;;;19.57;12.40;;;3.60;99.90;;;;;;5071277;28;20239;-73
2021/04/03 04:12:03;;;;;;;17.70;11.57;;;3.60;99.90;;;;;;5070734;28;20235;-73
2021/04/03 04:14:32;;;;;;;20.30;12.10;;;3.50;99.90;;;;;;5072603;28;20292;-73
2021/04/03 04:16:58;;;;;;;17.33;11.87;;;3.50;99.90;;;;;;5075091;28;20288;-73
2021/04/03 04:19:26;;;;;;;18.40;11.03;;;3.50;99.90;;;;;;5075015;28;20223;-73
2021/04/03 04:21:52;;;;;;;15.80;10.70;;;3.60;99.90;;;;;;5074434;28;20247;-73
2021/04/03 04:24:19;;;;;;;17.23;10.10;;;3.60;99.90;;;;;;5074691;28;20286;-73
2021/04/03 04:26:45;;;;;;;14.27;8.97;;;3.60;99.90;;;;;;5074465;28;20233;-73
2021/04/03 04:29:12;;;;;;;14.27;9.20;;;3.60;99.90;;;;;;5073910;28;20198;-73
2021/04/03 04:31:39;;;;;;;13.20;8.70;;;3.60;99.90;;;;;;5074784;28;20602;-73
2021/04/03 04:34:06;;;;;;;11.90;7.97;;;3.60;99.90;;;;;;5074205;28;20295;-73
2021/04/03 04:36:33;;;;;;;12.77;7.63;;;3.60;99.90;;;;;;5074830;28;20290;-73
2021/04/03 04:38:59;;;;;;;12.77;8.00;;;3.60;99.90;;;;;;5074661;28;20300;-73
2021/04/03 04:41:26;;;;;;;11.23;7.17;;;3.70;99.90;;;;;;5074922;28;20225;-73
2021/04/03 04:43:52;;;;;;;13.67;7.40;;;3.70;99.90;;;;;;5073699;28;20279;-73
2021/04/03 04:46:18;;;;;;;13.70;6.93;;;3.60;99.90;;;;;;5074901;28;20242;-73
2021/04/03 04:48:45;;;;;;;12.30;6.43;;;3.70;99.90;;;;;;5074684;28;20240;-73
2021/04/03 04:51:11;;;;;;;13.37;6.80;;;3.80;99.90;;;;;;5074001;28;20288;-73
2021/04/03 04:53:38;;;;;;;7.63;6.10;;;3.70;99.90;;;;;;5074443;28;20291;-73
2021/04/03 04:56:05;;;;;;;9.63;5.60;;;3.70;99.90;;;;;;5073978;28;20295;-73
2021/04/03 04:58:31;;;;;;;8.13;5.67;;;3.80;99.90;;;;;;5073628;28;20292;-73
2021/04/03 05:00:58;;;;;;;10.73;5.13;;;3.80;99.90;;;;;;5074107;28;20314;-73
2021/04/03 05:03:24;;;;;;;7.33;5.10;;;3.80;99.90;;;;;;5074437;28;20292;-73
2021/04/03 05:05:50;;;;;;;7.20;5.40;;;3.80;99.90;;;;;;5074069;28;20297;-73
2021/04/03 05:08:17;;;;;;;8.47;5.07;;;3.80;99.90;;;;;;5074097;28;20239;-73
2021/04/03 05:10:44;;;;;;;8.13;5.40;;;3.80;99.90;;;;;;5073915;28;20283;-73
2021/04/03 05:13:10;;;;;;;10.83;5.47;;;3.70;99.90;;;;;;5072348;28;20256;-74
2021/04/03 05:15:36;;;;;;;7.10;4.70;;;3.70;99.90;;;;;;5073381;28;20292;-73
2021/04/03 05:18:03;;;;;;;7.37;4.50;;;3.80;99.90;;;;;;5073821;28;20293;-73
2021/04/03 05:20:30;;;;;;;10.33;5.37;;;3.80;99.90;;;;;;5073248;28;20602;-73
2021/04/03 05:22:56;;;;;;;10.90;5.73;;;3.90;99.90;;;;;;5074124;28;20341;-73
2021/04/03 05:25:23;;;;;;;8.63;5.30;;;3.90;99.90;;;;;;5072831;28;20231;-73
2021/04/03 05:27:50;;;;;;;9.77;4.60;;;4.00;99.90;;;;;;5072987;28;20652;-72
2021/04/03 05:30:17;;;;;;;8.87;5.00;;;4.00;99.90;;;;;;5071393;28;20243;-73
2021/04/03 05:32:44;;;;;;;9.93;5.27;;;4.10;99.90;;;;;;5073280;28;20677;-73
2021/04/03 05:35:12;;;;;;;8.67;5.00;;;4.00;99.90;;;;;;5073473;28;20602;-73
2021/04/03 05:37:38;;;;;;;8.77;4.77;;;4.00;99.90;;;;;;5073568;28;20281;-73
2021/04/03 05:40:05;;;;;;;7.80;4.67;;;4.20;99.90;;;;;;5073147;28;20239;-73
2021/04/03 05:42:34;;;;;;;9.10;4.50;;;4.30;99.90;;;;;;5073138;28;20203;-73
2021/04/03 05:45:05;;;;;;;9.33;4.43;;;4.30;99.90;;;;;;5088275;28;20286;-73
2021/04/03 05:47:34;;;;;;;11.17;4.73;;;4.20;99.90;;;;;;5073446;28;20734;-73
2021/04/03 05:50:02;;;;;;;12.60;4.53;;;4.10;99.90;;;;;;5072245;28;20201;-74
2021/04/03 05:52:28;;;;;;;10.57;5.30;;;4.20;99.90;;;;;;5073233;28;20319;-74
2021/04/03 05:54:55;;;;;;;7.57;4.60;;;4.30;99.90;;;;;;5073276;28;20213;-73
2021/04/03 05:57:23;;;;;;;8.60;4.83;;;4.50;99.90;;;;;;5072508;28;20289;-74
2021/04/03 05:59:50;;;;;;;8.97;4.90;;;4.50;99.90;;;;;;5073141;28;20216;-73
2021/04/03 06:02:17;;;;;;;10.83;4.83;;;4.60;99.90;;;;;;5072839;28;20259;-73
2021/04/03 06:04:44;;;;;;;9.87;4.53;;;4.70;99.90;;;;;;5072954;28;20371;-73
2021/04/03 06:07:10;;;;;;;9.90;4.70;;;4.70;99.90;;;;;;5073407;28;20287;-73
2021/04/03 06:09:37;;;;;;;7.43;4.43;;;4.80;99.90;;;;;;5072261;28;20222;-73
2021/04/03 06:12:05;;;;;;;10.23;4.20;;;4.90;99.90;;;;;;5071688;28;20231;-73
2021/04/03 06:14:36;;;;;;;7.50;3.83;;;5.00;99.90;;;;;;5072546;28;20648;-73
2021/04/03 06:17:03;;;;;;;7.63;4.33;;;5.10;99.90;;;;;;5072785;28;20207;-73
2021/04/03 06:19:31;;;;;;;7.90;4.20;;;5.20;99.90;;;;;;5071890;28;20290;-73
2021/04/03 06:22:00;;;;;;;6.57;4.30;;;5.30;99.90;;;;;;5071493;28;20244;-75
2021/04/03 06:24:30;;;;;;;7.73;4.30;;;5.40;99.90;;;;;;5072510;28;20203;-75
2021/04/03 06:27:02;;;;;;;8.30;4.30;;;5.40;99.90;;;;;;5072478;28;20290;-75
2021/04/03 06:29:40;;;;;;;8.93;4.07;;;5.50;99.90;;;;;;5072532;28;20199;-75
2021/04/03 06:32:09;;;;;;;9.77;3.87;;;5.50;99.90;;;;;;5072105;28;20255;-75
2021/04/03 06:34:40;;;;;;;7.90;4.00;;;5.60;99.90;;;;;;5071963;28;20202;-75
2021/04/03 06:37:09;;;;;;;8.20;4.03;;;5.60;99.90;;;;;;5072317;28;20203;-75
2021/04/03 06:39:53;;;;;;;9.30;4.37;;;5.70;99.90;;;;;;5071365;28;20249;-75
2021/04/03 06:42:40;;;;;;;6.67;3.87;;;5.70;99.90;;;;;;5072573;28;20282;-74
2021/04/03 06:45:26;;;;;;;7.50;3.53;;;5.80;99.90;;;;;;5071601;28;20799;-75
2021/04/03 06:47:54;;;;;;;7.93;3.67;;;5.90;99.90;;;;;;5072468;28;20203;-75
2021/04/03 06:50:23;;;;;;;7.13;3.60;;;6.50;99.90;;;;;;5072545;28;20249;-75
2021/04/03 06:52:50;;;;;;;7.27;3.20;;;7.20;99.90;;;;;;5072154;28;20332;-75
2021/04/03 06:55:19;;;;;;;7.37;3.50;;;7.50;99.90;;;;;;5072203;28;20290;-75
2021/04/03 06:57:46;;;;;;;7.40;3.43;;;8.20;99.90;;;;;;5071834;28;20231;-76
2021/04/03 07:00:15;;;;;;;6.70;3.07;;;8.80;99.90;;;;;;5070298;28;20304;-75
2021/04/03 07:02:49;;;;;;;9.00;3.60;;;8.30;99.90;;;;;;5087268;28;20230;-75
2021/04/03 07:05:17;;;;;;;7.80;3.37;;;8.40;99.90;;;;;;5072087;28;20291;-75
2021/04/03 07:07:44;;;;;;;7.23;3.23;;;8.80;99.90;;;;;;5072018;28;20495;-75
2021/04/03 07:10:13;;;;;;;4.97;3.03;;;9.60;99.90;;;;;;5071495;28;20223;-75
2021/04/03 07:12:41;;;;;;;5.67;3.00;;;9.20;99.90;;;;;;5070966;28;20217;-75
2021/04/03 07:15:08;;;;;;;6.87;3.50;;;9.40;99.90;;;;;;5071512;28;20235;-74
2021/04/03 07:17:40;;;;;;;6.27;3.10;;;8.80;99.90;;;;;;5071625;28;20296;-74
2021/04/03 07:20:12;;;;;;;7.97;3.10;;;9.20;99.90;;;;;;5071878;28;20321;-75
2021/04/03 07:22:40;;;;;;;9.10;3.40;;;9.40;99.90;;;;;;5057528;28;20244;-75
2021/04/03 07:25:10;;;;;;;9.03;3.10;;;9.40;99.90;;;;;;5051358;28;20298;-75
2021/04/03 07:27:39;;;;;;;7.43;3.20;;;8.80;99.90;;;;;;5068190;28;20210;-75
2021/04/03 07:30:07;;;;;;;6.63;2.93;;;9.70;99.90;;;;;;5070910;28;20199;-75
2021/04/03 07:32:37;;;;;;;5.37;3.30;;;9.80;99.90;;;;;;5070972;28;20242;-75
2021/04/03 07:35:22;;;;;;;6.67;3.07;;;9.60;99.90;;;;;;5071368;28;20203;-76
2021/04/03 07:37:53;;;;;;;7.00;3.30;;;9.10;99.90;;;;;;5051461;28;20618;-75
2021/04/03 07:40:39;;;;;;;6.00;3.17;;;8.80;99.90;;;;;;5062512;28;20257;-75
2021/04/03 07:43:36;;;;;;;6.97;3.30;;;8.10;99.90;;;;;;5050682;28;20204;-75
2021/04/03 07:46:08;;;;;;;7.03;3.53;;;8.20;99.90;;;;;;5063496;28;20204;-75
2021/04/03 07:48:49;;;;;;;5.43;3.30;;;9.00;99.90;;;;;;5070537;28;20211;-75
2021/04/03 07:51:17;;;;;;;8.33;3.57;;;9.10;99.90;;;;;;5071373;28;20382;-75
2021/04/03 07:53:45;;;;;;;7.10;3.60;;;8.60;99.90;;;;;;5070063;28;20288;-75
2021/04/03 07:56:14;;;;;;;10.90;4.10;;;9.20;99.90;;;;;;5071074;28;20213;-75
2021/04/03 07:58:47;;;;;;;8.87;3.73;;;9.70;99.90;;;;;;5070875;28;20284;-74
2021/04/03 08:01:15;;;;;;;6.67;3.60;;;9.30;99.90;;;;;;5070343;28;20224;-75
2021/04/03 08:03:42;;;;;;;9.83;4.30;;;9.20;99.90;;;;;;5069881;28;20280;-75
2021/04/03 08:06:09;;;;;;;6.80;3.53;;;9.10;99.90;;;;;;5070622;28;20207;-75
2021/04/03 08:08:38;;;;;;;6.23;3.63;;;8.90;99.90;;;;;;5069708;28;20282;-75
2021/04/03 08:11:10;;;;;;;7.07;3.80;;;8.50;99.90;;;;;;5070827;28;20576;-75
2021/04/03 08:13:39;;;;;;;11.13;4.20;;;8.40;99.90;;;;;;5066652;28;20322;-75
2021/04/03 08:16:06;;;;;;;6.57;3.90;;;8.50;99.90;;;;;;5065258;28;20327;-75
2021/04/03 08:18:35;;;;;;;9.47;4.00;;;8.50;99.90;;;;;;5063540;28;20283;-75
2021/04/03 08:21:02;;;;;;;8.40;4.20;;;8.70;99.90;;;;;;5061161;28;20222;-75
2021/04/03 08:23:34;;;;;;;8.87;3.90;;;8.60;99.90;;;;;;5069150;28;20329;-75
2021/04/03 08:26:01;;;;;;;9.37;3.77;;;8.50;99.90;;;;;;5066719;28;20755;-75
2021/04/03 08:28:28;;;;;;;8.70;4.57;;;8.90;99.90;;;;;;5066755;28;20288;-75
2021/04/03 08:30:55;;;;;;;7.83;3.80;;;8.80;99.90;;;;;;5054109;28;20353;-75
2021/04/03 08:33:22;;;;;;;7.53;4.17;;;9.60;99.90;;;;;;5057686;28;20326;-76
2021/04/03 08:35:50;;;;;;;9.07;4.33;;;9.90;99.90;;;;;;5059001;28;20230;-76
2021/04/03 08:38:25;;;;;;;8.20;4.40;;;9.60;99.90;;;;;;5068120;28;20721;-75
2021/04/03 08:40:54;;;;;;;9.30;4.50;;;9.40;99.90;;;;;;5056564;28;20989;-75
2021/04/03 08:43:23;;;;;;;8.23;4.93;;;8.70;99.90;;;;;;5059938;28;20304;-75
2021/04/03 08:45:50;;;;;;;10.40;5.07;;;9.00;99.90;;;;;;5068070;28;20314;-75
2021/04/03 08:48:18;;;;;;;7.83;4.90;;;9.60;99.90;;;;;;5057575;28;20203;-79
2021/04/03 08:50:46;;;;;;;9.67;4.87;;;9.80;99.90;;;;;;5064274;28;20237;-75
2021/04/03 08:53:13;;;;;;;10.03;5.20;;;10.00;99.90;;;;;;5063775;28;20241;-76
2021/04/03 08:55:40;;;;;;;10.63;5.27;;;10.90;99.90;;;;;;5060701;28;20202;-75
2021/04/03 08:58:07;;;;;;;7.60;4.70;;;10.20;99.90;;;;;;5068747;28;20236;-75
2021/04/03 09:00:34;;;;;;;7.93;4.87;;;10.20;99.90;;;;;;5068642;28;20257;-75
2021/04/03 09:03:01;;;;;;;8.50;5.10;;;11.40;99.90;;;;;;5069143;28;20296;-76
2021/04/03 09:05:29;;;;;;;10.00;5.30;;;11.10;99.90;;;;;;5068759;28;20228;-75
2021/04/03 09:07:55;;;;;;;9.73;5.27;;;10.30;99.90;;;;;;5068718;28;20199;-75
2021/04/03 09:10:24;;;;;;;8.93;5.20;;;10.70;99.90;;;;;;5066174;28;20277;-75
2021/04/03 09:12:51;;;;;;;8.53;4.90;;;10.70;99.90;;;;;;5073304;28;20210;-75
2021/04/03 09:15:26;;;;;;;9.10;5.53;;;11.40;99.90;;;;;;5073278;28;20645;-75
2021/04/03 09:17:54;;;;;;;10.10;5.20;;;11.70;99.90;;;;;;5073424;28;20225;-75
2021/04/03 09:20:22;;;;;;;9.13;4.77;;;11.70;99.90;;;;;;5073419;28;20306;-75
2021/04/03 09:22:51;;;;;;;8.13;4.77;;;12.20;99.90;;;;;;5063689;28;20334;-77
2021/04/03 09:25:19;;;;;;;9.10;5.17;;;11.70;99.90;;;;;;5071166;28;20290;-77
2021/04/03 09:27:59;;;;;;;9.47;5.07;;;10.90;99.90;;;;;;5073919;28;20286;-76
2021/04/03 09:30:37;;;;;;;9.57;5.80;;;12.20;99.90;;;;;;5070803;28;20305;-76
2021/04/03 09:33:21;;;;;;;8.70;5.23;;;11.90;99.90;;;;;;5067350;28;20862;-76
2021/04/03 09:35:49;;;;;;;10.30;5.57;;;12.90;99.90;;;;;;5067599;28;20205;-76
2021/04/03 09:38:27;;;;;;;10.77;5.60;;;12.80;99.90;;;;;;5063062;28;20678;-76
2021/04/03 09:40:53;;;;;;;8.60;5.77;;;10.50;99.90;;;;;;5073601;28;20219;-77
2021/04/03 09:43:20;;;;;;;9.83;5.80;;;9.80;99.90;;;;;;5071125;28;20306;-76
2021/04/03 09:45:46;;;;;;;10.63;5.50;;;9.80;99.90;;;;;;5064799;28;20568;-76
2021/04/03 09:48:13;;;;;;;9.67;5.20;;;9.40;99.90;;;;;;5068632;28;20286;-76
2021/04/03 09:50:40;;;;;;;10.20;5.70;;;10.00;99.90;;;;;;5065456;28;20658;-75
2021/04/03 09:53:08;;;;;;;11.83;5.30;;;10.00;99.90;;;;;;5068969;28;20207;-76
2021/04/03 09:55:36;;;;;;;8.23;5.10;;;11.30;99.90;;;;;;5058733;28;20194;-75
2021/04/03 09:58:03;;;;;;;7.17;4.83;;;12.80;99.90;;;;;;5072979;28;20222;-76
2021/04/03 10:00:29;;;;;;;9.00;4.97;;;12.60;99.90;;;;;;5072557;28;20364;-74
2021/04/03 10:02:56;;;;;;;7.80;4.80;;;12.30;99.90;;;;;;5072602;28;20287;-75
2021/04/03 10:05:22;;;;;;;11.70;5.40;;;12.90;99.90;;;;;;5073021;28;20639;-74
2021/04/03 10:07:49;;;;;;;6.97;4.90;;;12.50;99.90;;;;;;5066154;28;20282;-74
2021/04/03 10:10:16;;;;;;;9.07;5.00;;;12.40;99.90;;;;;;5068298;28;20287;-75
2021/04/03 10:12:43;;;;;;;11.27;5.57;;;13.30;99.90;;;;;;5070842;28;20935;-74
2021/04/03 10:15:10;;;;;;;11.87;5.33;;;12.70;99.90;;;;;;5072436;28;20282;-75
2021/04/03 10:17:36;;;;;;;7.90;4.97;;;13.00;99.90;;;;;;5072381;28;20253;-75
2021/04/03 10:20:04;;;;;;;8.00;4.50;;;14.10;99.90;;;;;;5073006;28;20232;-76
2021/04/03 10:22:30;;;;;;;10.70;4.73;;;13.60;99.90;;;;;;5067974;28;20755;-75
2021/04/03 10:24:57;;;;;;;7.83;4.83;;;13.40;99.90;;;;;;5071294;28;20282;-75
2021/04/03 10:27:23;;;;;;;10.27;4.93;;;13.80;99.90;;;;;;5072942;28;20389;-77
2021/04/03 10:29:50;;;;;;;10.87;5.87;;;13.80;99.90;;;;;;5072769;28;20727;-77
2021/04/03 10:32:17;;;;;;;8.43;4.53;;;13.30;99.90;;;;;;5055699;28;20299;-75
2021/04/03 10:34:43;;;;;;;11.17;5.43;;;12.30;99.90;;;;;;5070601;28;20301;-74
2021/04/03 10:37:10;;;;;;;10.27;5.23;;;12.90;99.90;;;;;;5071819;28;20206;-74
2021/04/03 10:39:36;;;;;;;10.00;5.47;;;13.10;99.90;;;;;;5070247;28;20289;-74
2021/04/03 10:42:04;;;;;;;11.83;5.30;;;12.10;99.90;;;;;;5071028;28;20321;-75
2021/04/03 10:44:30;;;;;;;10.93;5.20;;;12.60;99.90;;;;;;5072032;28;20687;-74
2021/04/03 10:46:57;;;;;;;14.17;5.73;;;13.30;99.90;;;;;;5071489;28;20297;-75
2021/04/03 10:49:24;;;;;;;10.77;5.10;;;11.80;99.90;;;;;;5072225;28;20424;-74
2021/04/03 10:51:51;;;;;;;10.40;5.73;;;10.60;99.90;;;;;;5072339;28;20292;-75
2021/04/03 10:54:19;;;;;;;11.87;6.27;;;10.70;99.90;;;;;;5069981;28;20297;-75
2021/04/03 10:56:46;;;;;;;10.63;5.80;;;10.80;99.90;;;;;;5067704;28;20195;-76
2021/04/03 10:59:12;;;;;;;9.83;5.77;;;11.00;99.90;;;;;;5063108;28;20215;-76
2021/04/03 11:01:38;;;;;;;11.33;5.70;;;10.90;99.90;;;;;;5071217;28;21100;-75
2021/04/03 11:04:06;;;;;;;11.17;5.90;;;10.60;99.90;;;;;;5071679;28;20284;-76
2021/04/03 11:06:32;;;;;;;10.10;6.23;;;10.80;99.90;;;;;;5069640;28;20324;-75
2021/04/03 11:08:59;;;;;;;14.47;6.10;;;10.90;99.90;;;;;;5070611;28;20717;-75
2021/04/03 11:11:25;;;;;;;12.03;6.03;;;10.20;99.90;;;;;;5071561;28;20225;-75
2021/04/03 11:13:52;;;;;;;10.70;6.37;;;10.20;99.90;;;;;;5070691;28;20270;-75
2021/04/03 11:16:18;;;;;;;13.53;6.53;;;11.20;99.90;;;;;;5070687;28;20264;-76
2021/04/03 11:18:45;;;;;;;14.83;6.40;;;11.50;99.90;;;;;;5071622;28;20242;-76
2021/04/03 11:21:12;;;;;;;11.03;6.50;;;12.60;99.90;;;;;;5072017;28;20309;-77
2021/04/03 11:23:38;;;;;;;13.70;6.50;;;13.50;99.90;;;;;;5071268;28;20273;-78
2021/04/03 11:26:05;;;;;;;12.37;6.53;;;13.90;99.90;;;;;;5057088;28;20708;-76
2021/04/03 11:28:32;;;;;;;12.93;9.10;;;13.10;99.90;;;;;;5065606;28;20286;-76
2021/04/03 11:30:58;;;;;;;12.70;7.23;;;13.30;99.90;;;;;;5071351;28;20290;-75
2021/04/03 11:33:26;;;;;;;11.30;6.03;;;13.10;99.90;;;;;;5070724;28;20289;-76
2021/04/03 11:35:52;;;;;;;10.90;5.50;;;13.20;99.90;;;;;;5070517;28;20295;-76
2021/04/03 11:38:21;;;;;;;9.93;5.87;;;13.20;99.90;;;;;;5068887;28;20211;-76
2021/04/03 11:40:47;;;;;;;10.40;6.03;;;13.10;99.90;;;;;;5071334;28;20306;-77
2021/04/03 11:43:13;;;;;;;11.17;5.87;;;13.90;99.90;;;;;;5070428;28;20287;-77
2021/04/03 11:45:40;;;;;;;10.23;6.57;;;13.80;99.90;;;;;;5070377;28;20230;-77
2021/04/03 11:48:07;;;;;;;11.83;6.17;;;13.60;99.90;;;;;;5069406;28;20546;-76
2021/04/03 11:50:35;;;;;;;11.17;5.60;;;14.70;99.90;;;;;;5060734;28;20333;-76
2021/04/03 11:53:03;;;;;;;11.27;6.10;;;13.70;99.90;;;;;;5071276;28;20213;-76
2021/04/03 11:55:30;;;;;;;9.60;5.87;;;13.60;99.90;;;;;;5070898;28;20735;-77
2021/04/03 11:57:56;;;;;;;9.03;6.03;;;14.30;99.90;;;;;;5064507;28;20334;-76
2021/04/03 12:00:24;;;;;;;11.17;6.20;;;13.90;99.90;;;;;;5065355;28;20622;-76
2021/04/03 12:02:50;;;;;;;8.83;5.83;;;14.40;99.90;;;;;;5061229;28;20737;-76
2021/04/03 12:05:18;;;;;;;10.90;5.77;;;14.40;99.90;;;;;;5070499;28;20280;-76
2021/04/03 12:07:44;;;;;;;13.43;6.30;;;14.50;99.90;;;;;;5069948;28;20293;-76
2021/04/03 12:10:13;;;;;;;10.13;6.17;;;14.40;99.90;;;;;;5070249;28;20637;-76
2021/04/03 12:12:40;;;;;;;11.13;6.27;;;14.00;99.90;;;;;;5070570;28;20226;-76
2021/04/03 12:15:08;;;;;;;12.30;6.00;;;14.20;99.90;;;;;;5086138;28;20293;-76
2021/04/03 12:17:35;;;;;;;11.70;5.93;;;15.10;99.90;;;;;;5070728;28;20295;-76
2021/04/03 12:20:02;;;;;;;12.27;5.93;;;13.90;99.90;;;;;;5069510;28;20235;-76
2021/04/03 12:22:29;;;;;;;10.30;6.30;;;14.10;99.90;;;;;;5070580;28;20230;-76
2021/04/03 12:24:55;;;;;;;11.07;6.40;;;14.20;99.90;;;;;;5059988;28;20294;-75
2021/04/03 12:27:22;;;;;;;10.70;6.30;;;12.70;99.90;;;;;;5070078;28;20242;-76
2021/04/03 12:29:50;;;;;;;10.17;6.43;;;14.10;99.90;;;;;;5070096;28;20286;-76
2021/04/03 12:32:16;;;;;;;11.57;6.67;;;14.30;99.90;;;;;;5070758;28;20207;-75
2021/04/03 12:34:43;;;;;;;11.17;6.20;;;14.50;99.90;;;;;;5070778;28;20231;-75
2021/04/03 12:37:09;;;;;;;13.17;6.90;;;13.80;99.90;;;;;;5074555;28;20207;-76
2021/04/03 12:39:36;;;;;;;10.07;6.30;;;14.30;99.90;;;;;;5074232;28;20211;-75
2021/04/03 12:42:03;;;;;;;12.63;6.60;;;13.90;99.90;;;;;;5074062;28;20652;-76
2021/04/03 12:44:29;;;;;;;11.20;6.83;;;14.00;99.90;;;;;;5074213;28;20278;-76
2021/04/03 12:46:57;;;;;;;14.97;6.90;;;14.40;99.90;;;;;;5070699;28;20214;-76
2021/04/03 12:49:23;;;;;;;12.17;6.17;;;13.70;99.90;;;;;;5068748;28;20235;-75